Greenhurst, New York
Current Conditions -  °F | °C
As of 2:35 AM on Saturday 29 Nov 2014 (Local Time) from KJHW Reporting Station
Broken Clouds Broken Clouds  
Wind Chill:   Ceiling: 3400
Heat Index: 19°   Visibility: 5mi
Dew Point: 18°   Wind: 8mph
Humidity: 93%   Direction: 170°S
Pressure: 30.11"   Gusts: NA
Location:  42.12°N, 79.31°W
Report Text: KJHW 290735Z 17007KT 5SM FEW022 SCT027 BKN034 M07/M08 A3011 RMK AO1
Loading
Personal Weather Stations






























Interactive Weather Map New forecast layout! Learn more

10-Day Weather Forecast

Advertisements
Track Severe Weather on mobile